createdAt,value
2018-04-08T00:00:01.301Z,13.03
2018-04-08T00:02:29.664Z,13.60
2018-04-08T00:04:57.739Z,11.70
2018-04-08T00:07:25.871Z,13.20
2018-04-08T00:09:53.989Z,12.60
2018-04-08T00:12:22.959Z,10.07
2018-04-08T00:14:51.334Z,13.77
2018-04-08T00:17:19.439Z,10.73
2018-04-08T00:19:47.533Z,10.77
2018-04-08T00:22:15.706Z,9.80
2018-04-08T00:24:43.811Z,12.30
2018-04-08T00:27:12.837Z,13.97
2018-04-08T00:29:40.938Z,12.13
2018-04-08T00:32:09.086Z,12.63
2018-04-08T00:47:37.204Z,11.73
2018-04-08T00:50:05.307Z,10.30
2018-04-08T00:52:33.426Z,9.93
2018-04-08T00:55:01.548Z,10.93
2018-04-08T00:57:29.649Z,14.23
2018-04-08T00:59:57.781Z,15.33
2018-04-08T01:02:27.231Z,10.73
2018-04-08T01:04:55.346Z,13.37
2018-04-08T01:07:23.460Z,18.90
2018-04-08T01:09:51.582Z,15.70
2018-04-08T01:12:19.665Z,15.80
2018-04-08T01:14:47.782Z,13.40
2018-04-08T01:17:16.201Z,17.00
2018-04-08T01:19:44.325Z,20.03
2018-04-08T01:22:12.449Z,14.40
2018-04-08T01:24:41.314Z,12.80
2018-04-08T01:27:09.458Z,18.57
2018-04-08T01:29:37.555Z,21.67
2018-04-08T01:32:06.267Z,18.60
2018-04-08T01:34:34.397Z,20.73
2018-04-08T01:37:02.522Z,15.70
2018-04-08T01:39:30.629Z,19.57
2018-04-08T01:41:58.721Z,15.47
2018-04-08T01:44:27.645Z,16.77
2018-04-08T01:46:55.815Z,22.23
2018-04-08T01:49:24.827Z,22.83
2018-04-08T01:51:53.762Z,23.40
2018-04-08T01:54:22.236Z,20.50
2018-04-08T01:56:50.329Z,18.37
2018-04-08T01:59:18.640Z,18.83
2018-04-08T02:01:46.742Z,20.10
2018-04-08T02:04:14.874Z,18.33
2018-04-08T02:06:43.841Z,22.00
2018-04-08T02:09:12.427Z,24.80
2018-04-08T02:11:40.931Z,24.87
2018-04-08T02:14:09.091Z,21.57
2018-04-08T02:16:37.212Z,25.67
2018-04-08T02:19:05.346Z,19.20
2018-04-08T02:21:34.020Z,26.20
2018-04-08T02:24:02.194Z,23.63
2018-04-08T02:26:30.288Z,24.53
2018-04-08T02:28:58.397Z,24.40
2018-04-08T02:31:26.506Z,24.23
2018-04-08T02:33:55.264Z,26.03
2018-04-08T02:36:23.751Z,22.20
2018-04-08T02:38:52.877Z,24.23
2018-04-08T02:41:21.001Z,27.47
2018-04-08T02:43:49.130Z,23.63
2018-04-08T02:46:17.250Z,27.43
2018-04-08T02:48:45.955Z,23.07
2018-04-08T02:51:14.695Z,27.57
2018-04-08T02:53:42.835Z,20.93
2018-04-08T02:56:11.956Z,25.43
2018-04-08T02:58:40.154Z,23.73
2018-04-08T03:01:08.250Z,25.73
2018-04-08T03:03:36.346Z,20.30
2018-04-08T03:06:05.267Z,24.60
2018-04-08T03:08:33.373Z,24.30
2018-04-08T03:11:01.467Z,27.33
2018-04-08T03:13:29.588Z,26.60
2018-04-08T03:15:58.845Z,23.70
2018-04-08T03:18:27.201Z,26.47
2018-04-08T03:20:55.346Z,31.33
2018-04-08T03:23:23.430Z,26.23
2018-04-08T03:25:51.536Z,25.70
2018-04-08T03:28:19.652Z,26.77
2018-04-08T03:30:48.637Z,26.07
2018-04-08T03:33:17.372Z,29.60
2018-04-08T03:35:45.526Z,24.10
2018-04-08T03:38:13.632Z,23.53
2018-04-08T03:40:41.727Z,26.27
2018-04-08T03:43:09.838Z,24.70
2018-04-08T03:45:38.742Z,27.30
2018-04-08T03:48:07.722Z,24.80
2018-04-08T03:50:35.824Z,28.10
2018-04-08T03:53:03.923Z,23.23
2018-04-08T03:55:32.042Z,25.27
2018-04-08T03:58:00.138Z,28.97
2018-04-08T04:00:28.242Z,24.13
2018-04-08T04:02:56.349Z,30.87
2018-04-08T04:18:42.310Z,30.13
2018-04-08T04:21:22.343Z,30.83
2018-04-08T04:26:54.079Z,29.13
2018-04-08T04:29:22.256Z,28.63
2018-04-08T04:31:51.351Z,37.97
2018-04-08T04:34:19.820Z,32.33
2018-04-08T04:36:47.926Z,40.43
2018-04-08T04:39:16.014Z,34.17
2018-04-08T04:41:44.144Z,32.90
2018-04-08T04:44:12.243Z,32.27
2018-04-08T04:46:40.336Z,32.20
2018-04-08T05:02:13.463Z,33.53
2018-04-08T05:04:41.652Z,36.53
2018-04-08T05:07:10.296Z,33.83
2018-04-08T05:09:38.384Z,36.27
2018-04-08T05:12:06.555Z,36.50
2018-04-08T05:14:35.363Z,30.67
2018-04-08T05:17:03.466Z,32.67
2018-04-08T05:19:31.597Z,31.77
2018-04-08T05:21:59.730Z,34.27
2018-04-08T05:24:27.829Z,35.07
2018-04-08T05:26:55.963Z,33.47
2018-04-08T05:29:24.067Z,32.47
2018-04-08T05:31:52.188Z,32.17
2018-04-08T05:34:20.766Z,36.03
2018-04-08T05:36:48.865Z,31.00
2018-04-08T05:39:16.991Z,39.10
2018-04-08T05:41:45.106Z,32.73
2018-04-08T05:44:13.279Z,34.00
2018-04-08T05:46:41.394Z,32.37
2018-04-08T05:49:09.522Z,33.70
2018-04-08T05:51:37.623Z,36.93
2018-04-08T05:54:06.517Z,36.87
2018-04-08T05:56:34.687Z,32.67
2018-04-08T05:59:03.359Z,34.27
2018-04-08T06:01:31.463Z,39.00
2018-04-08T06:03:59.584Z,34.33
2018-04-08T06:06:28.454Z,28.17
2018-04-08T06:08:56.554Z,32.50
2018-04-08T06:11:24.746Z,34.90
2018-04-08T06:13:52.912Z,35.00
2018-04-08T06:16:21.011Z,31.23
2018-04-08T06:18:49.136Z,34.87
2018-04-08T06:21:17.251Z,34.60
2018-04-08T06:23:45.409Z,29.53
2018-04-08T06:26:13.548Z,33.77
2018-04-08T06:28:41.738Z,32.93
2018-04-08T06:31:09.825Z,30.97
2018-04-08T06:33:37.931Z,33.27
2018-04-08T06:36:06.726Z,34.67
2018-04-08T06:38:35.453Z,31.07
2018-04-08T06:41:03.558Z,36.20
2018-04-08T06:53:16.694Z,33.23
2018-04-08T06:55:44.786Z,33.33
2018-04-08T06:58:12.903Z,30.17
2018-04-08T07:00:41.966Z,38.67
2018-04-08T07:03:10.214Z,33.70
2018-04-08T07:05:38.308Z,27.70
2018-04-08T07:08:07.428Z,30.30
2018-04-08T07:10:35.554Z,31.10
2018-04-08T07:13:03.645Z,29.37
2018-04-08T07:15:31.772Z,26.70
2018-04-08T07:18:00.836Z,33.77
2018-04-08T07:20:29.399Z,31.33
2018-04-08T07:22:57.528Z,29.93
2018-04-08T07:25:26.364Z,30.23
2018-04-08T07:27:54.644Z,33.33
2018-04-08T07:30:22.813Z,30.60
2018-04-08T07:32:51.942Z,31.80
2018-04-08T07:35:20.362Z,24.77
2018-04-08T07:37:48.822Z,28.87
2018-04-08T07:40:17.856Z,24.57
2018-04-08T07:42:45.990Z,24.83
2018-04-08T07:45:14.730Z,26.63
2018-04-08T07:47:42.918Z,26.20
2018-04-08T07:50:11.034Z,29.70
2018-04-08T07:52:39.139Z,25.90
2018-04-08T07:55:07.320Z,23.23
2018-04-08T07:57:35.470Z,23.53
2018-04-08T08:00:03.624Z,22.90
2018-04-08T08:02:31.787Z,18.17
2018-04-08T08:05:00.334Z,19.53
2018-04-08T08:07:29.651Z,19.37
2018-04-08T08:09:57.789Z,24.20
2018-04-08T08:12:26.434Z,18.07
2018-04-08T08:14:54.534Z,32.23
2018-04-08T08:17:22.634Z,27.30
2018-04-08T08:19:50.762Z,25.37
2018-04-08T08:22:18.866Z,20.53
2018-04-08T08:24:47.062Z,19.80
2018-04-08T08:27:15.196Z,19.27
2018-04-08T08:29:43.325Z,21.73
2018-04-08T08:32:11.414Z,18.73
2018-04-08T08:34:39.525Z,21.17
2018-04-08T08:37:07.748Z,20.03
2018-04-08T08:39:36.482Z,24.10
2018-04-08T08:42:04.596Z,20.50
2018-04-08T08:44:32.722Z,19.50
2018-04-08T08:47:00.835Z,19.47
2018-04-08T08:49:28.927Z,21.97
2018-04-08T08:51:57.064Z,18.40
2018-04-08T08:54:25.180Z,20.50
2018-04-08T08:56:54.006Z,17.27
2018-04-08T08:59:22.365Z,18.93
2018-04-08T09:01:50.449Z,20.70
2018-04-08T09:04:18.544Z,12.87
2018-04-08T09:06:47.639Z,14.43
2018-04-08T09:09:16.010Z,15.23
2018-04-08T09:11:44.114Z,13.83
2018-04-08T09:14:12.211Z,14.77
2018-04-08T09:16:40.444Z,14.50
2018-04-08T09:19:09.567Z,16.10
2018-04-08T09:24:46.035Z,14.30
2018-04-08T09:27:14.275Z,13.93
2018-04-08T09:29:43.935Z,14.63
2018-04-08T09:32:12.001Z,12.60
2018-04-08T09:34:40.145Z,19.50
2018-04-08T09:37:08.251Z,21.87
2018-04-08T09:39:36.443Z,19.10
2018-04-08T09:42:04.569Z,21.17
2018-04-08T09:44:33.042Z,16.87
2018-04-08T10:00:06.247Z,12.43
2018-04-08T10:02:36.344Z,17.77
2018-04-08T10:05:04.438Z,9.40
2018-04-08T10:07:32.975Z,12.20
2018-04-08T10:10:01.072Z,9.93
2018-04-08T10:12:30.117Z,11.53
2018-04-08T10:14:59.115Z,12.53
2018-04-08T10:17:28.795Z,11.67
2018-04-08T10:19:56.889Z,12.87
2018-04-08T10:35:25.260Z,18.93
2018-04-08T10:37:53.367Z,15.63
2018-04-08T10:40:21.535Z,16.13
2018-04-08T10:42:50.505Z,15.00
2018-04-08T10:45:18.615Z,17.23
2018-04-08T10:47:47.393Z,18.30
2018-04-08T10:50:15.519Z,17.37
2018-04-08T10:52:43.621Z,17.40
2018-04-08T10:55:11.776Z,14.63
2018-04-08T10:57:39.894Z,17.20
2018-04-08T11:00:07.999Z,17.57
2018-04-08T11:02:36.107Z,22.33
2018-04-08T11:05:04.275Z,15.47
2018-04-08T11:07:32.373Z,18.03
2018-04-08T11:10:00.722Z,22.47
2018-04-08T11:12:28.815Z,17.20
2018-04-08T11:14:56.923Z,20.77
2018-04-08T11:17:25.923Z,16.17
2018-04-08T11:19:54.039Z,18.67
2018-04-08T11:22:22.161Z,19.50
2018-04-08T11:24:50.308Z,18.63
2018-04-08T11:27:18.417Z,23.43
2018-04-08T11:29:46.523Z,22.07
2018-04-08T11:32:14.646Z,17.27
2018-04-08T11:34:42.795Z,21.83
2018-04-08T11:37:11.246Z,21.40
2018-04-08T11:39:39.329Z,20.53
2018-04-08T11:42:07.433Z,17.27
2018-04-08T11:44:35.549Z,21.47
2018-04-08T11:47:03.687Z,19.10
2018-04-08T11:49:31.791Z,20.80
2018-04-08T11:52:00.186Z,20.50
2018-04-08T11:54:28.321Z,22.57
2018-04-08T11:56:56.417Z,23.43
2018-04-08T11:59:24.525Z,21.63
2018-04-08T12:01:52.646Z,23.17
2018-04-08T12:04:20.760Z,28.00
2018-04-08T12:06:48.883Z,18.90
2018-04-08T12:09:17.005Z,20.20
2018-04-08T12:11:45.697Z,24.53
2018-04-08T12:14:13.791Z,23.43
2018-04-08T12:16:41.925Z,18.27
2018-04-08T12:19:10.036Z,23.00
2018-04-08T12:21:38.143Z,21.40
2018-04-08T12:24:06.263Z,20.37
2018-04-08T12:26:49.242Z,23.63
2018-04-08T12:29:17.371Z,23.67
2018-04-08T12:31:45.775Z,17.77
2018-04-08T12:47:13.899Z,22.93
2018-04-08T12:49:42.011Z,18.20
2018-04-08T12:52:10.123Z,19.07
2018-04-08T12:54:38.562Z,23.30
2018-04-08T12:57:07.311Z,23.90
2018-04-08T12:59:35.427Z,20.33
2018-04-08T13:02:03.532Z,24.23
2018-04-08T13:04:31.664Z,24.43
2018-04-08T13:07:00.530Z,26.10
2018-04-08T13:09:28.636Z,23.77
2018-04-08T13:24:56.758Z,25.93
2018-04-08T13:27:24.888Z,26.93
2018-04-08T13:29:53.842Z,27.23
2018-04-08T13:32:22.010Z,35.17
2018-04-08T13:34:50.110Z,35.20
2018-04-08T13:37:18.878Z,29.07
2018-04-08T13:39:47.050Z,29.33
2018-04-08T13:42:15.145Z,30.53
2018-04-08T13:44:43.241Z,32.13
2018-04-08T13:47:13.149Z,38.77
2018-04-08T13:49:41.262Z,36.47
2018-04-08T13:52:09.361Z,33.67
2018-04-08T13:54:37.493Z,35.77
2018-04-08T13:57:05.697Z,28.63
2018-04-08T13:59:34.141Z,34.63
2018-04-08T14:02:02.300Z,34.57
2018-04-08T14:04:31.619Z,34.53
2018-04-08T14:07:00.012Z,31.13
2018-04-08T14:09:28.101Z,35.23
2018-04-08T14:11:56.245Z,32.53
2018-04-08T14:14:24.360Z,35.43
2018-04-08T14:16:53.082Z,36.33
2018-04-08T14:19:21.202Z,33.20
2018-04-08T14:21:49.319Z,31.33
2018-04-08T14:24:17.530Z,36.90
2018-04-08T14:26:45.634Z,33.17
2018-04-08T14:29:13.746Z,35.10
2018-04-08T14:31:41.853Z,37.73
2018-04-08T14:34:09.971Z,37.63
2018-04-08T14:36:38.073Z,34.20
2018-04-08T14:39:06.179Z,35.80
2018-04-08T14:41:34.323Z,34.90
2018-04-08T14:44:02.676Z,34.23
2018-04-08T14:46:30.790Z,35.83
2018-04-08T14:48:58.928Z,32.67
2018-04-08T14:51:27.539Z,32.07
2018-04-08T14:53:55.683Z,36.03
2018-04-08T14:56:23.819Z,34.77
2018-04-08T14:58:51.958Z,37.50
2018-04-08T15:01:20.071Z,35.63
2018-04-08T15:03:48.181Z,37.47
2018-04-08T15:06:16.287Z,38.63
2018-04-08T15:08:44.406Z,35.73
2018-04-08T15:11:12.538Z,39.63
2018-04-08T15:13:40.954Z,41.90
2018-04-08T15:16:09.073Z,39.60
2018-04-08T15:18:37.187Z,38.10
2018-04-08T15:21:05.296Z,36.17
2018-04-08T15:23:33.389Z,40.20
2018-04-08T15:26:01.536Z,39.00
2018-04-08T15:28:29.938Z,33.77
2018-04-08T15:30:58.045Z,36.40
2018-04-08T15:33:26.462Z,34.37
2018-04-08T15:35:54.638Z,33.43
2018-04-08T15:38:22.741Z,37.13
2018-04-08T15:40:50.871Z,36.00
2018-04-08T15:43:19.054Z,34.70
2018-04-08T15:45:47.173Z,34.17
2018-04-08T15:48:15.277Z,29.57
2018-04-08T15:50:44.511Z,42.47
2018-04-08T15:53:13.512Z,36.87
2018-04-08T15:55:41.624Z,35.03
2018-04-08T15:58:09.728Z,32.73
2018-04-08T16:00:37.846Z,32.50
2018-04-08T16:03:05.977Z,32.87
2018-04-08T16:05:34.835Z,35.20
2018-04-08T16:08:03.011Z,32.77
2018-04-08T16:10:31.106Z,33.10
2018-04-08T16:12:59.228Z,33.87
2018-04-08T16:15:27.396Z,28.27
2018-04-08T16:17:55.464Z,31.60
2018-04-08T16:20:23.598Z,32.93
2018-04-08T16:22:51.715Z,31.60
2018-04-08T16:25:19.837Z,33.57
2018-04-08T16:27:48.305Z,31.17
2018-04-08T16:30:16.398Z,27.43
2018-04-08T16:32:44.504Z,36.50
2018-04-08T16:35:13.174Z,29.73
2018-04-08T16:37:41.262Z,34.90
2018-04-08T16:40:10.257Z,29.53
2018-04-08T16:42:38.378Z,30.23
2018-04-08T16:45:06.473Z,32.27
2018-04-08T16:47:34.586Z,34.23
2018-04-08T16:50:02.737Z,37.93
2018-04-08T16:52:30.862Z,31.13
2018-04-08T16:54:58.945Z,33.77
2018-04-08T16:57:27.122Z,30.00
2018-04-08T16:59:55.220Z,34.13
2018-04-08T17:02:23.323Z,32.83
2018-04-08T17:04:51.462Z,37.53
2018-04-08T17:07:20.350Z,36.67
2018-04-08T17:09:48.515Z,36.70
2018-04-08T17:12:16.625Z,31.53
2018-04-08T17:14:44.735Z,42.57
2018-04-08T17:17:13.529Z,35.00
2018-04-08T17:19:41.646Z,36.47
2018-04-08T17:22:09.853Z,37.10
2018-04-08T17:24:37.936Z,29.13
2018-04-08T17:27:06.777Z,27.57
2018-04-08T17:29:35.149Z,30.07
2018-04-08T17:32:03.246Z,25.83
2018-04-08T17:34:31.338Z,33.50
2018-04-08T17:37:00.186Z,27.97
2018-04-08T17:39:29.451Z,30.70
2018-04-08T17:41:57.616Z,33.63
2018-04-08T17:44:25.730Z,31.40
2018-04-08T17:46:53.824Z,34.63
2018-04-08T17:49:22.014Z,36.47
2018-04-08T17:51:50.102Z,34.07
2018-04-08T17:54:18.616Z,32.63
2018-04-08T17:56:46.894Z,32.00
2018-04-08T17:59:15.286Z,33.07
2018-04-08T18:01:43.412Z,42.00
2018-04-08T18:04:11.878Z,37.83
2018-04-08T18:06:39.975Z,37.67
2018-04-08T18:09:08.208Z,34.20
2018-04-08T18:11:36.314Z,34.47
2018-04-08T18:14:04.415Z,34.10
2018-04-08T18:16:32.525Z,34.37
2018-04-08T18:19:01.586Z,37.10
2018-04-08T18:21:29.698Z,32.17
2018-04-08T18:23:57.830Z,35.10
2018-04-08T18:26:26.022Z,31.13
2018-04-08T18:28:54.122Z,32.73
2018-04-08T18:31:22.214Z,33.87
2018-04-08T18:33:50.350Z,28.93
2018-04-08T18:36:18.867Z,29.57
2018-04-08T18:38:47.231Z,35.23
2018-04-08T18:41:15.366Z,29.13
2018-04-08T18:43:43.470Z,38.37
2018-04-08T18:46:11.590Z,33.27
2018-04-08T18:48:39.712Z,36.20
2018-04-08T18:51:07.920Z,33.00
2018-04-08T18:53:36.024Z,35.23
2018-04-08T18:56:04.134Z,35.03
2018-04-08T18:58:32.251Z,38.73
2018-04-08T19:01:01.107Z,31.87
2018-04-08T19:03:29.228Z,31.07
2018-04-08T19:05:57.326Z,34.33
2018-04-08T19:08:25.485Z,30.07
2018-04-08T19:10:54.119Z,29.37
2018-04-08T19:13:22.213Z,35.50
2018-04-08T19:15:50.723Z,35.17
2018-04-08T19:18:18.878Z,36.77
2018-04-08T19:20:47.732Z,32.87
2018-04-08T19:23:16.608Z,30.03
2018-04-08T19:38:44.735Z,33.60
2018-04-08T19:41:12.869Z,36.37
2018-04-08T19:43:41.003Z,33.03
2018-04-08T19:46:09.336Z,31.83
2018-04-08T19:48:37.435Z,38.07
2018-04-08T19:51:05.591Z,34.37
2018-04-08T19:53:34.135Z,33.53
2018-04-08T19:56:02.931Z,33.00
2018-04-08T19:58:31.050Z,33.70
2018-04-08T20:00:59.179Z,37.03
2018-04-08T20:03:28.105Z,30.03
2018-04-08T20:05:56.256Z,30.20
2018-04-08T20:08:24.378Z,35.47
2018-04-08T20:10:52.537Z,35.57
2018-04-08T20:13:21.566Z,34.47
2018-04-08T20:15:50.599Z,33.47
2018-04-08T20:18:18.675Z,38.33
2018-04-08T20:20:47.684Z,38.93
2018-04-08T20:23:15.901Z,38.47
2018-04-08T20:25:44.661Z,30.60
2018-04-08T20:28:13.214Z,34.13
2018-04-08T20:30:42.305Z,37.47
2018-04-08T20:33:10.406Z,35.00
2018-04-08T20:35:38.529Z,32.87
2018-04-08T20:38:07.301Z,37.37
2018-04-08T20:40:35.404Z,31.67
2018-04-08T20:43:03.535Z,38.83
2018-04-08T20:58:31.647Z,37.97
2018-04-08T21:00:59.816Z,38.67
2018-04-08T21:03:28.587Z,37.63
2018-04-08T21:05:56.763Z,40.73
2018-04-08T21:08:25.792Z,46.23
2018-04-08T21:10:53.907Z,41.73
2018-04-08T21:13:22.004Z,40.83
2018-04-08T21:15:55.066Z,37.37
2018-04-08T21:18:23.159Z,42.77
2018-04-08T21:20:51.263Z,42.67
2018-04-08T21:23:19.370Z,39.70
2018-04-08T21:25:47.841Z,38.03
2018-04-08T21:28:16.905Z,42.93
2018-04-08T21:30:45.002Z,41.97
2018-04-08T21:33:13.161Z,35.87
2018-04-08T21:35:41.272Z,39.20
2018-04-08T21:38:09.362Z,38.47
2018-04-08T21:40:37.491Z,40.73
2018-04-08T21:43:05.611Z,36.17
2018-04-08T21:45:33.735Z,37.87
2018-04-08T21:48:01.931Z,32.90
2018-04-08T22:03:30.983Z,38.27
2018-04-08T22:05:59.790Z,39.40
2018-04-08T22:08:28.757Z,43.43
2018-04-08T22:10:56.948Z,36.63
2018-04-08T22:13:25.038Z,37.83
2018-04-08T22:15:53.297Z,32.53
2018-04-08T22:18:21.416Z,39.20
2018-04-08T22:20:50.327Z,40.03
2018-04-08T22:23:18.445Z,41.60
2018-04-08T22:25:48.209Z,34.47
2018-04-08T22:28:16.294Z,37.77
2018-04-08T22:30:44.391Z,42.47
2018-04-08T22:33:12.541Z,38.03
2018-04-08T22:35:41.442Z,40.00
2018-04-08T22:38:09.525Z,36.53
2018-04-08T22:40:37.622Z,43.20
2018-04-08T22:43:05.750Z,39.93
2018-04-08T22:45:34.129Z,38.50
2018-04-08T22:48:02.233Z,37.47
2018-04-08T22:50:30.371Z,46.93
2018-04-08T22:52:58.489Z,39.63
2018-04-08T22:55:26.565Z,40.80
2018-04-08T22:57:54.705Z,39.30
2018-04-08T23:00:25.563Z,37.37
2018-04-08T23:02:53.711Z,43.70
2018-04-08T23:05:21.821Z,35.60
2018-04-08T23:07:49.945Z,41.93
2018-04-08T23:10:18.065Z,41.93
2018-04-08T23:12:46.162Z,42.50
2018-04-08T23:15:14.542Z,40.33
2018-04-08T23:17:42.728Z,44.50
2018-04-08T23:20:10.810Z,36.43
2018-04-08T23:22:38.926Z,41.97
2018-04-08T23:25:07.048Z,39.27
2018-04-08T23:27:35.151Z,42.27
2018-04-08T23:30:03.266Z,40.77
2018-04-08T23:32:31.385Z,38.03
2018-04-08T23:34:59.485Z,36.60
2018-04-08T23:37:28.427Z,39.60
2018-04-08T23:39:57.646Z,42.67
2018-04-08T23:42:25.799Z,44.63
2018-04-08T23:44:53.895Z,38.57
2018-04-08T23:47:22.791Z,49.00
2018-04-08T23:49:51.169Z,38.87
2018-04-08T23:52:19.262Z,41.40
2018-04-08T23:54:47.411Z,44.03
2018-04-08T23:57:15.578Z,41.30
2018-04-08T23:59:43.691Z,43.60
